Time;durP1;ratioP1;P1;durP2;ratioP2;P2;SDS_P1;SDS_P2;PMS_P1;PMS_P2;Temp;Humidity;BMP_temperature;BMP_pressure;BME280_temperature;BME280_humidity;BME280_pressure;Samples;Min_cycle;Max_cycle;Signal;HPM_P1;HPM_P2
2022/06/22 00:00:28;;;;;;;1.90;0.63;;;15.40;99.90;;;;;;5110222;28;20218;-66
2022/06/22 00:02:57;;;;;;;4.77;0.80;;;15.30;99.90;;;;;;5092988;28;20184;-67
2022/06/22 00:05:54;;;;;;;2.03;0.90;;;15.60;99.90;;;;;;5083543;28;20676;-67
2022/06/22 00:08:28;;;;;;;1.20;0.60;;;15.80;99.90;;;;;;5081438;28;20179;-67
2022/06/22 00:11:14;;;;;;;3.67;0.70;;;15.70;99.90;;;;;;5094812;28;20178;-67
2022/06/22 00:13:55;;;;;;;1.43;0.80;;;15.80;99.90;;;;;;5094515;28;20588;-67
2022/06/22 00:16:29;;;;;;;2.37;0.90;;;16.30;99.90;;;;;;5094937;28;20218;-68
2022/06/22 00:18:57;;;;;;;5.47;3.23;;;16.50;99.90;;;;;;5094508;28;20191;-66
2022/06/22 00:21:26;;;;;;;3.13;1.40;;;16.50;99.90;;;;;;5094891;28;20221;-67
2022/06/22 00:23:57;;;;;;;3.33;0.93;;;16.90;99.90;;;;;;5093985;28;20664;-65
2022/06/22 00:26:25;;;;;;;2.23;0.93;;;16.30;99.90;;;;;;5094819;28;20223;-66
2022/06/22 00:29:11;;;;;;;1.77;0.57;;;16.50;99.90;;;;;;5094810;28;20538;-66
2022/06/22 00:31:42;;;;;;;2.20;1.20;;;16.10;99.90;;;;;;5090815;28;20182;-66
2022/06/22 00:34:23;;;;;;;2.30;1.00;;;16.10;99.90;;;;;;5083716;28;20649;-66
2022/06/22 00:36:57;;;;;;;2.10;0.83;;;16.60;99.90;;;;;;5094627;28;20660;-67
2022/06/22 00:39:38;;;;;;;1.53;1.00;;;17.00;99.90;;;;;;5094309;28;20219;-66
2022/06/22 00:42:14;;;;;;;3.43;1.03;;;17.10;99.90;;;;;;5094063;28;20193;-67
2022/06/22 00:45:09;;;;;;;2.07;1.00;;;17.30;99.90;;;;;;5094374;28;20244;-66
2022/06/22 00:47:46;;;;;;;1.40;0.80;;;17.80;99.90;;;;;;5091633;28;20192;-67
2022/06/22 00:50:19;;;;;;;3.63;1.00;;;17.50;99.90;;;;;;5093839;28;20190;-66
2022/06/22 00:53:06;;;;;;;1.87;0.83;;;17.20;99.90;;;;;;5094396;28;20203;-66
2022/06/22 00:55:37;;;;;;;2.30;1.00;;;16.80;99.90;;;;;;5093993;28;20232;-67
2022/06/22 00:58:18;;;;;;;4.10;0.90;;;17.40;99.90;;;;;;5094267;28;20520;-67
2022/06/22 01:01:27;;;;;;;2.10;0.93;;;17.50;99.90;;;;;;5093907;28;20696;-66
2022/06/22 01:04:04;;;;;;;2.50;1.00;;;17.70;99.90;;;;;;5083925;28;20190;-66
2022/06/22 01:06:43;;;;;;;0.80;0.60;;;18.00;99.90;;;;;;5092988;28;20590;-64
2022/06/22 01:09:20;;;;;;;3.07;0.83;;;18.10;99.90;;;;;;5084274;28;20183;-66
2022/06/22 01:12:23;;;;;;;3.27;0.90;;;17.80;99.90;;;;;;5094562;28;20167;-65
2022/06/22 01:15:12;;;;;;;1.60;0.77;;;17.90;99.90;;;;;;5073664;28;20537;-65
2022/06/22 01:17:51;;;;;;;2.83;0.77;;;18.20;99.90;;;;;;5078494;28;20195;-66
2022/06/22 01:20:25;;;;;;;2.83;0.73;;;17.90;99.90;;;;;;5093285;28;20402;-66
2022/06/22 01:23:21;;;;;;;3.07;0.90;;;18.10;99.90;;;;;;5096906;28;20191;-67
2022/06/22 01:25:52;;;;;;;4.23;0.97;;;18.20;99.90;;;;;;5067130;28;20220;-66
2022/06/22 01:28:21;;;;;;;1.50;0.90;;;18.50;99.90;;;;;;5073467;28;20232;-67
2022/06/22 01:30:56;;;;;;;2.40;1.20;;;18.90;99.90;;;;;;5073340;28;20201;-66
2022/06/22 01:33:38;;;;;;;2.50;1.43;;;19.40;99.90;;;;;;5071599;28;20183;-66
2022/06/22 01:36:15;;;;;;;3.37;1.40;;;19.30;99.90;;;;;;5073371;28;20179;-66
2022/06/22 01:38:43;;;;;;;3.87;1.00;;;19.00;99.90;;;;;;5073257;28;20516;-66
2022/06/22 01:41:20;;;;;;;2.87;0.90;;;19.40;99.90;;;;;;5073115;28;20551;-66
2022/06/22 01:43:53;;;;;;;2.20;0.70;;;19.30;99.90;;;;;;5072830;28;20173;-66
2022/06/22 01:46:34;;;;;;;3.50;1.10;;;19.80;99.90;;;;;;5072910;28;20669;-65
2022/06/22 01:49:17;;;;;;;1.07;0.67;;;19.90;99.90;;;;;;5073108;28;20176;-66
2022/06/22 01:51:54;;;;;;;3.03;0.70;;;20.00;99.90;;;;;;5072075;28;20633;-65
2022/06/22 01:54:32;;;;;;;0.67;0.60;;;19.90;99.90;;;;;;5072666;28;20184;-66
2022/06/22 01:57:22;;;;;;;1.47;0.80;;;19.60;99.90;;;;;;5071642;28;20214;-66
2022/06/22 02:00:13;;;;;;;1.80;0.70;;;20.00;99.90;;;;;;5072450;28;20247;-66
2022/06/22 02:02:45;;;;;;;3.07;1.20;;;20.50;99.90;;;;;;5067169;28;20168;-65
2022/06/22 02:05:18;;;;;;;1.17;0.60;;;20.50;99.90;;;;;;5063158;28;20177;-65
2022/06/22 02:08:17;;;;;;;1.23;0.70;;;20.00;99.90;;;;;;5061911;28;20239;-65
2022/06/22 02:10:47;;;;;;;2.60;0.50;;;19.40;99.90;;;;;;5039253;28;20216;-65
2022/06/22 02:13:44;;;;;;;2.93;1.20;;;19.50;99.90;;;;;;5060596;28;20187;-66
2022/06/22 02:16:30;;;;;;;1.13;0.60;;;19.60;99.90;;;;;;5052662;28;20191;-66
2022/06/22 02:19:01;;;;;;;4.23;0.80;;;19.90;99.90;;;;;;5055023;28;20262;-65
2022/06/22 02:21:41;;;;;;;1.77;0.87;;;20.60;99.90;;;;;;5072181;28;20218;-65
2022/06/22 02:24:28;;;;;;;0.93;0.80;;;20.20;99.90;;;;;;5072535;28;20176;-65
2022/06/22 02:27:08;;;;;;;3.70;0.77;;;20.50;99.90;;;;;;5082842;28;20311;-66
2022/06/22 02:29:37;;;;;;;3.90;2.47;;;21.20;99.90;;;;;;5091792;28;20231;-66
2022/06/22 02:32:10;;;;;;;3.50;0.90;;;20.80;99.90;;;;;;5092307;28;20184;-66
2022/06/22 02:34:41;;;;;;;2.77;1.87;;;20.10;99.90;;;;;;5091940;28;20178;-66
2022/06/22 02:37:10;;;;;;;1.13;0.70;;;19.70;99.90;;;;;;5092351;28;20182;-66
2022/06/22 02:39:47;;;;;;;1.43;0.90;;;19.40;99.90;;;;;;5092157;28;20203;-67
2022/06/22 02:45:03;;;;;;;2.03;0.63;;;20.20;99.90;;;;;;5092418;28;20192;-67
2022/06/22 02:47:45;;;;;;;1.27;0.70;;;19.80;99.90;;;;;;5092120;28;20712;-67
2022/06/22 02:50:13;;;;;;;2.00;0.70;;;20.20;99.90;;;;;;5091531;28;20645;-67
2022/06/22 02:53:06;;;;;;;1.27;0.70;;;20.40;99.90;;;;;;5092054;28;20187;-66
2022/06/22 02:55:37;;;;;;;1.80;0.70;;;20.60;99.90;;;;;;5073562;28;20190;-67
2022/06/22 02:58:22;;;;;;;1.60;0.60;;;20.90;99.90;;;;;;5091915;28;20256;-67
2022/06/22 03:00:50;;;;;;;1.87;0.70;;;20.70;95.80;;;;;;5091726;28;20207;-67
2022/06/22 03:03:18;;;;;;;1.83;0.70;;;20.30;98.90;;;;;;5091991;28;20175;-67
2022/06/22 03:05:49;;;;;;;1.00;0.57;;;20.70;95.60;;;;;;5092007;28;20179;-67
2022/06/22 03:08:19;;;;;;;1.00;0.50;;;20.90;99.90;;;;;;5092045;28;20175;-67
2022/06/22 03:11:02;;;;;;;1.60;0.63;;;20.40;94.90;;;;;;5091523;28;20236;-66
2022/06/22 03:13:37;;;;;;;1.07;0.60;;;19.80;97.30;;;;;;5091665;28;20175;-67
2022/06/22 03:16:07;;;;;;;2.07;0.73;;;20.30;97.30;;;;;;5091834;28;20258;-67
2022/06/22 03:18:39;;;;;;;0.80;0.50;;;20.70;98.50;;;;;;5073201;28;20598;-66
2022/06/22 03:21:11;;;;;;;1.03;0.60;;;21.00;98.60;;;;;;5091671;28;20281;-67
2022/06/22 03:24:06;;;;;;;1.50;0.73;;;21.30;95.80;;;;;;5091796;28;20192;-67
2022/06/22 03:26:54;;;;;;;1.73;0.90;;;21.50;95.10;;;;;;5072707;28;20230;-67
2022/06/22 03:30:01;;;;;;;3.07;0.60;;;22.20;92.20;;;;;;5083925;28;20184;-65
2022/06/22 03:33:10;;;;;;;0.90;0.40;;;20.60;93.10;;;;;;5080918;28;20217;-66
2022/06/22 03:35:43;;;;;;;1.27;0.60;;;19.80;95.50;;;;;;5087124;28;20191;-66
2022/06/22 03:38:36;;;;;;;0.40;0.40;;;19.30;99.70;;;;;;5088561;28;20648;-66
2022/06/22 03:41:11;;;;;;;1.37;0.60;;;18.80;99.90;;;;;;5091719;28;20230;-65
2022/06/22 03:43:59;;;;;;;0.50;0.50;;;18.50;99.90;;;;;;5091349;28;20182;-66
2022/06/22 03:46:43;;;;;;;2.17;0.60;;;18.40;99.90;;;;;;5085519;28;20668;-66
2022/06/22 03:49:28;;;;;;;1.23;0.60;;;18.40;99.90;;;;;;5091700;28;20196;-66
2022/06/22 03:52:18;;;;;;;1.13;0.50;;;19.00;99.90;;;;;;5091221;28;20192;-66
2022/06/22 03:54:51;;;;;;;2.07;0.60;;;19.80;99.90;;;;;;5091276;28;20182;-66
2022/06/22 03:57:23;;;;;;;0.53;0.50;;;20.10;99.90;;;;;;5091392;28;20171;-66
2022/06/22 03:59:51;;;;;;;0.70;0.60;;;20.00;94.70;;;;;;5091185;28;20199;-66
2022/06/22 04:02:19;;;;;;;0.97;0.70;;;20.90;98.20;;;;;;5091547;28;20171;-66
2022/06/22 04:04:55;;;;;;;0.90;0.60;;;21.20;92.90;;;;;;5090812;28;20244;-66
2022/06/22 04:07:26;;;;;;;0.90;0.57;;;20.90;92.60;;;;;;5091224;28;20277;-66
2022/06/22 04:09:56;;;;;;;2.57;0.93;;;20.80;91.30;;;;;;5091276;28;20187;-66
2022/06/22 04:12:46;;;;;;;2.57;1.33;;;20.90;91.70;;;;;;5091188;28;20187;-66
2022/06/22 04:15:37;;;;;;;1.00;0.80;;;20.50;90.90;;;;;;5093727;28;20199;-66
2022/06/22 04:18:15;;;;;;;1.00;0.70;;;21.10;93.00;;;;;;5081970;28;20188;-66
2022/06/22 04:21:07;;;;;;;1.17;0.60;;;21.40;89.50;;;;;;5095026;28;20680;-66
2022/06/22 04:23:44;;;;;;;1.70;0.97;;;21.20;92.20;;;;;;5082852;28;20192;-65
2022/06/22 04:26:25;;;;;;;2.10;0.90;;;21.50;90.00;;;;;;5094553;28;20227;-65
2022/06/22 04:29:06;;;;;;;5.90;3.40;;;21.70;90.80;;;;;;5094515;28;20185;-66
2022/06/22 04:31:37;;;;;;;2.33;0.83;;;22.00;90.10;;;;;;5094420;28;20178;-66
2022/06/22 04:34:35;;;;;;;0.70;0.60;;;22.20;85.50;;;;;;5094383;28;20210;-67
2022/06/22 04:37:08;;;;;;;3.57;0.80;;;21.90;86.80;;;;;;5094634;28;20187;-66
2022/06/22 04:39:44;;;;;;;0.70;0.60;;;22.10;88.00;;;;;;5094146;28;20185;-66
2022/06/22 04:42:12;;;;;;;0.47;0.40;;;22.20;86.30;;;;;;5094623;28;20561;-66
2022/06/22 04:44:49;;;;;;;1.30;0.67;;;22.50;85.00;;;;;;5094384;28;20174;-66
2022/06/22 04:47:31;;;;;;;1.43;0.67;;;22.90;82.50;;;;;;5092811;28;20269;-66
2022/06/22 04:50:06;;;;;;;2.13;0.90;;;22.30;78.90;;;;;;5087544;28;20192;-66
2022/06/22 04:52:48;;;;;;;1.03;0.57;;;22.20;81.00;;;;;;5087443;28;20616;-67
2022/06/22 04:55:23;;;;;;;1.27;0.60;;;22.00;83.60;;;;;;5085455;28;20190;-66
2022/06/22 04:58:00;;;;;;;0.73;0.57;;;21.90;82.80;;;;;;5073843;28;20262;-66
2022/06/22 05:00:34;;;;;;;3.37;0.60;;;21.30;83.60;;;;;;5083381;28;20693;-65
2022/06/22 05:03:15;;;;;;;0.33;0.33;;;21.30;85.00;;;;;;5091853;28;20547;-65
2022/06/22 05:05:43;;;;;;;5.43;0.90;;;21.20;84.90;;;;;;5093566;28;20650;-66
2022/06/22 05:08:25;;;;;;;0.87;0.53;;;21.30;85.20;;;;;;5094038;28;20644;-66
2022/06/22 05:11:06;;;;;;;1.70;0.50;;;21.20;80.80;;;;;;5092207;28;20185;-66
2022/06/22 05:13:42;;;;;;;4.10;0.60;;;20.70;87.70;;;;;;5093669;28;20752;-66
2022/06/22 05:16:22;;;;;;;1.87;0.63;;;20.90;84.00;;;;;;5093938;28;20261;-67
2022/06/22 05:18:51;;;;;;;1.30;0.57;;;21.00;92.30;;;;;;5093480;28;20185;-66
2022/06/22 05:21:34;;;;;;;3.03;1.20;;;21.40;87.20;;;;;;5093772;28;20233;-67
2022/06/22 05:24:26;;;;;;;0.93;0.70;;;21.40;88.00;;;;;;5093559;28;20244;-66
2022/06/22 05:26:58;;;;;;;0.50;0.50;;;20.80;86.30;;;;;;5077355;28;20235;-66
2022/06/22 05:29:36;;;;;;;1.33;0.70;;;20.50;90.10;;;;;;5093423;28;20777;-66
2022/06/22 05:32:11;;;;;;;1.70;0.77;;;20.10;91.80;;;;;;5093532;28;20186;-67
2022/06/22 05:34:41;;;;;;;1.23;0.60;;;19.50;92.70;;;;;;5093439;28;20669;-65
2022/06/22 05:37:32;;;;;;;2.97;0.60;;;19.00;95.30;;;;;;5093959;28;20185;-66
2022/06/22 05:40:00;;;;;;;3.60;0.80;;;18.70;98.20;;;;;;5093447;28;20249;-66
2022/06/22 05:42:31;;;;;;;2.47;0.50;;;18.50;99.00;;;;;;5094586;28;20172;-68
2022/06/22 05:44:59;;;;;;;2.20;0.60;;;18.30;99.90;;;;;;5091975;28;20270;-67
2022/06/22 05:47:31;;;;;;;0.83;0.60;;;18.10;99.90;;;;;;5089581;28;20179;-68
2022/06/22 05:50:16;;;;;;;1.80;0.73;;;17.80;99.90;;;;;;5092813;28;20207;-68
2022/06/22 05:52:52;;;;;;;2.40;0.80;;;17.50;99.90;;;;;;5094427;28;20223;-68
2022/06/22 05:56:02;;;;;;;2.03;0.90;;;17.40;99.90;;;;;;5092865;28;20175;-68
2022/06/22 05:59:00;;;;;;;0.80;0.63;;;17.20;99.90;;;;;;5092076;28;20174;-69
2022/06/22 06:01:40;;;;;;;2.37;0.83;;;17.10;99.90;;;;;;5092300;28;20224;-68
2022/06/22 06:04:25;;;;;;;0.93;0.60;;;17.00;99.90;;;;;;5093469;28;20668;-68
2022/06/22 06:06:59;;;;;;;1.20;0.80;;;16.90;99.90;;;;;;5093419;28;20185;-68
2022/06/22 06:09:28;;;;;;;1.97;1.73;;;16.70;99.90;;;;;;5093322;28;20232;-68
2022/06/22 06:12:16;;;;;;;2.73;1.00;;;16.50;99.90;;;;;;5094254;28;20172;-67
2022/06/22 06:14:48;;;;;;;2.00;1.10;;;16.40;99.90;;;;;;5094102;28;20176;-68
2022/06/22 06:17:35;;;;;;;1.40;1.07;;;16.30;99.90;;;;;;5093923;28;20171;-68
2022/06/22 06:20:07;;;;;;;2.30;0.80;;;16.10;99.90;;;;;;5075594;28;20751;-67
2022/06/22 06:22:36;;;;;;;1.50;1.13;;;15.90;99.90;;;;;;5093766;28;20186;-68
2022/06/22 06:28:07;;;;;;;3.67;1.10;;;15.50;99.90;;;;;;5093912;28;20328;-67
2022/06/22 06:30:50;;;;;;;3.00;1.17;;;15.40;99.90;;;;;;5093886;28;20229;-68
2022/06/22 06:33:34;;;;;;;3.20;0.97;;;15.20;99.90;;;;;;5093567;28;20179;-68
2022/06/22 06:36:39;;;;;;;1.13;0.80;;;15.00;99.90;;;;;;5075607;28;20186;-69
2022/06/22 06:39:14;;;;;;;1.53;0.93;;;14.90;99.90;;;;;;5093630;28;20178;-70
2022/06/22 06:42:03;;;;;;;3.03;0.70;;;14.70;99.90;;;;;;5093787;28;20202;-69
2022/06/22 06:44:39;;;;;;;1.23;1.00;;;14.50;99.90;;;;;;5093815;28;20171;-68
2022/06/22 06:47:23;;;;;;;2.13;0.77;;;14.40;99.90;;;;;;5093645;28;20194;-69
2022/06/22 06:50:16;;;;;;;0.70;0.50;;;14.20;99.90;;;;;;5093493;28;20171;-69
2022/06/22 06:52:47;;;;;;;1.67;0.77;;;14.10;99.90;;;;;;5080473;28;20195;-67
2022/06/22 06:55:15;;;;;;;1.90;0.70;;;13.90;99.90;;;;;;5093771;28;20254;-69
2022/06/22 06:57:57;;;;;;;2.83;0.80;;;13.80;99.90;;;;;;5093344;28;20185;-68
2022/06/22 07:00:27;;;;;;;3.93;1.13;;;13.70;99.90;;;;;;5093683;28;20209;-69
2022/06/22 07:02:55;;;;;;;3.33;0.93;;;13.50;99.90;;;;;;5093537;28;20284;-69
2022/06/22 07:05:26;;;;;;;4.27;1.50;;;13.40;99.90;;;;;;5093416;28;20183;-70
2022/06/22 07:08:00;;;;;;;2.10;1.00;;;13.30;99.90;;;;;;5093772;28;20214;-70
2022/06/22 07:10:48;;;;;;;5.10;0.90;;;13.20;99.90;;;;;;5093824;28;20198;-70
2022/06/22 07:13:54;;;;;;;2.23;1.20;;;13.10;99.90;;;;;;5093651;28;20187;-70
2022/06/22 07:16:26;;;;;;;3.77;1.53;;;12.90;99.90;;;;;;4991859;28;20184;-70
2022/06/22 07:19:21;;;;;;;3.93;1.77;;;12.80;99.90;;;;;;5076322;28;20738;-70
2022/06/22 07:21:55;;;;;;;3.10;1.67;;;12.80;99.90;;;;;;5093289;28;20290;-70
2022/06/22 07:24:43;;;;;;;5.80;3.33;;;12.70;99.90;;;;;;5093192;28;20168;-68
2022/06/22 07:27:11;;;;;;;8.30;3.17;;;12.60;99.90;;;;;;5093032;28;20255;-69
2022/06/22 07:29:55;;;;;;;8.73;2.37;;;12.50;99.90;;;;;;5093283;28;20177;-68
2022/06/22 07:32:37;;;;;;;9.83;2.30;;;12.40;99.90;;;;;;5093153;28;20186;-68
2022/06/22 07:35:20;;;;;;;7.70;3.17;;;12.30;99.90;;;;;;5093406;28;20307;-69
2022/06/22 07:38:07;;;;;;;4.17;2.37;;;12.30;99.90;;;;;;5092913;28;20220;-69
2022/06/22 07:40:39;;;;;;;4.30;2.17;;;12.20;99.90;;;;;;5092773;28;20624;-68
2022/06/22 07:43:11;;;;;;;6.17;2.37;;;12.10;99.90;;;;;;5075033;28;20186;-68
2022/06/22 07:45:39;;;;;;;4.37;2.67;;;11.90;99.90;;;;;;5092907;28;20181;-68
2022/06/22 07:48:16;;;;;;;7.03;2.80;;;11.90;99.90;;;;;;5092823;28;20280;-67
2022/06/22 07:50:57;;;;;;;7.77;3.27;;;11.80;99.90;;;;;;5096635;28;20194;-69
2022/06/22 07:53:50;;;;;;;8.13;4.43;;;11.70;99.90;;;;;;5096968;28;20185;-68
2022/06/22 07:56:21;;;;;;;9.53;4.93;;;11.70;99.90;;;;;;5086144;28;20204;-68
2022/06/22 07:59:18;;;;;;;11.37;8.03;;;11.60;99.90;;;;;;5096661;28;20177;-68
2022/06/22 08:01:48;;;;;;;16.43;10.30;;;11.50;99.90;;;;;;5096717;28;20214;-68
2022/06/22 08:04:41;;;;;;;15.47;8.90;;;11.60;99.90;;;;;;5096835;28;20253;-68
2022/06/22 08:07:34;;;;;;;16.87;11.17;;;11.50;99.90;;;;;;5096946;28;20209;-68
2022/06/22 08:10:22;;;;;;;13.60;6.80;;;11.50;99.90;;;;;;5096814;28;20632;-69
2022/06/22 08:13:13;;;;;;;19.10;6.93;;;11.40;99.90;;;;;;5097101;28;20176;-68
2022/06/22 08:15:50;;;;;;;19.83;5.17;;;11.40;99.90;;;;;;5096336;28;20196;-69
2022/06/22 08:18:19;;;;;;;8.07;4.70;;;11.30;99.90;;;;;;5096299;28;20169;-67
2022/06/22 08:20:49;;;;;;;18.33;6.30;;;11.20;99.90;;;;;;5096233;28;20208;-69
2022/06/22 08:23:22;;;;;;;14.03;7.57;;;11.20;99.90;;;;;;5096590;28;20179;-69
2022/06/22 08:25:51;;;;;;;8.53;6.17;;;11.10;99.90;;;;;;5095933;28;20237;-68
2022/06/22 08:28:23;;;;;;;11.57;5.50;;;11.20;99.90;;;;;;5096161;28;20180;-69
2022/06/22 08:30:53;;;;;;;10.33;5.80;;;11.20;99.90;;;;;;5077800;28;20556;-68
2022/06/22 08:33:47;;;;;;;7.57;5.17;;;11.20;99.90;;;;;;5096086;28;20591;-69
2022/06/22 08:36:33;;;;;;;10.73;5.47;;;11.20;99.90;;;;;;5095935;28;20177;-69
2022/06/22 08:39:00;;;;;;;9.83;7.93;;;11.20;99.90;;;;;;5095846;28;20177;-68
2022/06/22 08:41:54;;;;;;;12.03;8.17;;;11.10;99.90;;;;;;5095809;28;20301;-69
2022/06/22 08:44:51;;;;;;;10.27;6.80;;;11.00;99.90;;;;;;5096725;28;20164;-70
2022/06/22 08:47:37;;;;;;;10.27;7.17;;;10.90;99.90;;;;;;5097306;28;20254;-69
2022/06/22 08:50:28;;;;;;;13.13;8.03;;;10.80;99.90;;;;;;5095698;28;20182;-70
2022/06/22 08:53:11;;;;;;;12.47;8.37;;;10.70;99.90;;;;;;5096019;28;20168;-69
2022/06/22 08:56:07;;;;;;;11.90;7.37;;;10.60;99.90;;;;;;5095910;28;20179;-69
2022/06/22 08:58:55;;;;;;;12.23;7.60;;;10.60;99.90;;;;;;5095273;28;20261;-69
2022/06/22 09:01:49;;;;;;;10.50;8.17;;;10.50;99.90;;;;;;5095453;28;20215;-69
2022/06/22 09:04:19;;;;;;;17.60;7.43;;;10.40;99.90;;;;;;5078176;28;20190;-69
2022/06/22 09:07:14;;;;;;;11.97;8.13;;;10.30;99.90;;;;;;5095705;28;20198;-68
2022/06/22 09:10:04;;;;;;;13.07;8.20;;;10.30;99.90;;;;;;5095444;28;20171;-68
2022/06/22 09:12:39;;;;;;;12.30;8.10;;;10.20;99.90;;;;;;5095545;28;20213;-68
2022/06/22 09:15:10;;;;;;;12.93;8.87;;;10.10;99.90;;;;;;5095503;28;20163;-69
2022/06/22 09:17:55;;;;;;;12.80;9.20;;;10.10;99.90;;;;;;5094904;28;20187;-68
2022/06/22 09:20:53;;;;;;;15.33;7.87;;;10.00;99.90;;;;;;5095381;28;20247;-68
2022/06/22 09:23:56;;;;;;;9.70;7.37;;;10.10;99.90;;;;;;5077028;28;20517;-68
2022/06/22 09:26:29;;;;;;;17.40;7.90;;;10.00;99.90;;;;;;5076620;28;20246;-69
2022/06/22 09:29:08;;;;;;;12.60;8.70;;;9.90;99.90;;;;;;5095242;28;20165;-69
2022/06/22 09:32:00;;;;;;;13.67;7.97;;;9.90;99.90;;;;;;5094932;28;20230;-69
2022/06/22 09:34:51;;;;;;;11.90;7.53;;;9.80;99.90;;;;;;5076774;28;20177;-69
2022/06/22 09:37:49;;;;;;;10.20;7.57;;;9.70;99.90;;;;;;5094779;28;20176;-69
2022/06/22 09:40:20;;;;;;;17.30;7.47;;;9.80;99.90;;;;;;5094836;28;20211;-69
2022/06/22 09:43:35;;;;;;;10.97;7.23;;;9.70;99.90;;;;;;5094758;28;20172;-68
2022/06/22 09:46:12;;;;;;;12.47;6.97;;;9.70;99.90;;;;;;5005839;28;20184;-67
2022/06/22 09:48:52;;;;;;;15.50;7.00;;;9.60;99.90;;;;;;5094638;28;20229;-67
2022/06/22 09:51:54;;;;;;;12.23;7.57;;;9.60;99.90;;;;;;5094807;28;20179;-67
2022/06/22 09:57:38;;;;;;;13.00;7.87;;;9.50;99.90;;;;;;5094390;28;20596;-68
2022/06/22 10:00:20;;;;;;;14.63;7.13;;;9.50;99.90;;;;;;5094508;28;20203;-67
2022/06/22 10:03:02;;;;;;;12.27;8.27;;;9.50;99.90;;;;;;5094423;28;20196;-67
2022/06/22 10:05:49;;;;;;;17.90;9.73;;;9.50;99.90;;;;;;5094646;28;20175;-67
2022/06/22 10:08:39;;;;;;;17.33;10.10;;;9.40;99.90;;;;;;5094194;28;20179;-69
2022/06/22 10:11:06;;;;;;;19.53;11.97;;;9.40;99.90;;;;;;5094349;28;20221;-69
2022/06/22 10:14:25;;;;;;;19.33;10.43;;;9.40;99.90;;;;;;5093800;28;20225;-68
2022/06/22 10:17:14;;;;;;;13.90;7.53;;;9.40;99.90;;;;;;5094430;28;20175;-69
2022/06/22 10:19:50;;;;;;;15.57;7.60;;;9.40;99.90;;;;;;5093940;28;20214;-69
2022/06/22 10:22:53;;;;;;;11.40;7.13;;;9.30;99.90;;;;;;5093906;28;20225;-68
2022/06/22 10:25:41;;;;;;;12.90;6.97;;;9.30;99.90;;;;;;5093778;28;20648;-69
2022/06/22 10:28:33;;;;;;;11.30;6.47;;;9.40;99.90;;;;;;5093881;28;20176;-68
2022/06/22 10:31:14;;;;;;;13.67;8.67;;;9.60;99.90;;;;;;5093848;28;20171;-69
2022/06/22 10:33:50;;;;;;;9.30;6.40;;;9.70;99.90;;;;;;5094071;28;20172;-69
2022/06/22 10:36:42;;;;;;;12.23;5.90;;;9.80;99.90;;;;;;5094025;28;20706;-69
2022/06/22 10:39:27;;;;;;;10.87;6.03;;;9.90;99.90;;;;;;5093625;28;20185;-69
2022/06/22 10:45:33;;;;;;;11.27;6.67;;;9.70;99.90;;;;;;5094138;28;20656;-69
2022/06/22 10:48:11;;;;;;;9.50;5.80;;;9.60;99.90;;;;;;5075259;28;20647;-68
2022/06/22 10:50:42;;;;;;;8.00;4.73;;;9.50;99.90;;;;;;5093796;28;20184;-69
2022/06/22 10:53:27;;;;;;;6.83;4.73;;;9.50;99.90;;;;;;5093567;28;20173;-68
2022/06/22 10:56:16;;;;;;;7.73;5.00;;;9.40;99.90;;;;;;5093645;28;20183;-69
2022/06/22 10:59:20;;;;;;;11.40;5.10;;;9.30;99.90;;;;;;5093547;28;20187;-69
2022/06/22 11:02:49;;;;;;;7.13;4.70;;;9.30;99.90;;;;;;5093271;28;20226;-68
2022/06/22 11:05:22;;;;;;;9.80;4.97;;;9.20;99.90;;;;;;4988629;28;20225;-70
2022/06/22 11:08:08;;;;;;;8.67;4.43;;;9.10;99.90;;;;;;5009709;28;20222;-67
2022/06/22 11:10:48;;;;;;;6.43;4.50;;;9.00;99.90;;;;;;5057500;28;20224;-67
2022/06/22 11:13:18;;;;;;;7.67;4.37;;;9.00;99.90;;;;;;5093166;28;20676;-68
2022/06/22 11:16:13;;;;;;;6.87;3.93;;;8.90;99.90;;;;;;5092893;28;20652;-67
2022/06/22 11:18:44;;;;;;;7.67;4.37;;;8.90;99.90;;;;;;5074071;28;21792;-67
2022/06/22 11:21:22;;;;;;;8.00;5.30;;;8.80;99.90;;;;;;5073042;28;20222;-68
2022/06/22 11:24:08;;;;;;;12.43;9.97;;;8.80;99.90;;;;;;5094034;28;20628;-68
2022/06/22 11:33:31;;;;;;;7.70;5.10;;;9.00;99.90;;;;;;5077220;28;20238;-67
2022/06/22 11:36:05;;;;;;;9.13;5.37;;;8.90;99.90;;;;;;5043777;28;20240;-68
2022/06/22 11:39:06;;;;;;;12.07;5.67;;;8.80;99.90;;;;;;5081511;28;20202;-67
2022/06/22 11:41:53;;;;;;;7.33;5.20;;;8.70;99.90;;;;;;5097128;28;20559;-67
2022/06/22 11:44:38;;;;;;;7.97;5.80;;;8.60;99.90;;;;;;5096491;28;20186;-67
2022/06/22 11:47:24;;;;;;;13.60;5.37;;;8.60;99.90;;;;;;5084783;28;20180;-67
2022/06/22 11:50:19;;;;;;;9.37;4.97;;;8.50;99.90;;;;;;5058741;28;20515;-68
2022/06/22 11:53:16;;;;;;;10.23;5.40;;;8.40;99.90;;;;;;5094518;28;20201;-68
2022/06/22 11:55:53;;;;;;;7.27;4.53;;;8.40;99.90;;;;;;5087357;28;20182;-68
2022/06/22 11:58:42;;;;;;;6.00;4.60;;;8.40;99.90;;;;;;5087253;28;20520;-67
2022/06/22 12:01:46;;;;;;;5.87;4.03;;;8.30;99.90;;;;;;5090688;28;20251;-67
2022/06/22 12:04:50;;;;;;;7.07;4.97;;;8.30;99.90;;;;;;5088547;28;20255;-67
2022/06/22 12:07:53;;;;;;;7.13;5.10;;;8.30;99.90;;;;;;5088776;28;20183;-68
2022/06/22 12:10:33;;;;;;;10.33;5.80;;;8.20;99.90;;;;;;5085215;28;20177;-68
2022/06/22 12:13:28;;;;;;;8.63;5.10;;;8.20;99.90;;;;;;5095964;28;20228;-67
2022/06/22 12:15:59;;;;;;;8.00;4.77;;;8.20;99.90;;;;;;5095613;28;20565;-68
2022/06/22 12:18:30;;;;;;;5.73;4.20;;;8.20;99.90;;;;;;5069250;28;20180;-66
2022/06/22 12:21:33;;;;;;;6.90;3.80;;;8.30;99.90;;;;;;5088130;28;20213;-66
2022/06/22 12:24:16;;;;;;;6.37;4.13;;;8.20;99.90;;;;;;5086315;28;20229;-66
2022/06/22 12:26:47;;;;;;;6.93;3.63;;;8.30;99.90;;;;;;5091471;28;20273;-66
2022/06/22 12:29:27;;;;;;;4.63;3.00;;;8.40;99.90;;;;;;5089625;28;20180;-66
2022/06/22 12:32:14;;;;;;;4.67;3.10;;;8.30;99.90;;;;;;5085408;28;20182;-66
2022/06/22 12:35:08;;;;;;;5.33;3.00;;;8.30;99.90;;;;;;5085636;28;20172;-66
2022/06/22 12:37:59;;;;;;;5.50;3.10;;;8.30;99.90;;;;;;5041576;28;20274;-67
2022/06/22 12:40:39;;;;;;;5.90;2.83;;;8.30;99.90;;;;;;5086317;28;20540;-67
2022/06/22 12:43:40;;;;;;;7.97;3.13;;;8.30;99.90;;;;;;5086394;28;20175;-67
2022/06/22 12:46:32;;;;;;;3.37;2.67;;;8.30;99.90;;;;;;5086282;28;20713;-67
2022/06/22 12:49:06;;;;;;;3.57;2.53;;;8.30;99.90;;;;;;5085531;28;20181;-67
2022/06/22 12:51:42;;;;;;;2.97;2.43;;;8.30;99.90;;;;;;5084631;28;20252;-68
2022/06/22 12:54:20;;;;;;;5.27;2.83;;;8.30;99.90;;;;;;5086303;28;20280;-68
2022/06/22 12:57:02;;;;;;;4.97;2.83;;;8.20;99.90;;;;;;5090483;28;20176;-67
2022/06/22 13:00:02;;;;;;;4.60;2.43;;;8.10;99.90;;;;;;5089350;28;20246;-67
2022/06/22 13:02:32;;;;;;;6.67;3.10;;;8.00;99.90;;;;;;5077079;28;20216;-66
2022/06/22 13:05:07;;;;;;;3.60;2.60;;;8.00;99.90;;;;;;5095466;28;20311;-67
2022/06/22 13:07:48;;;;;;;3.73;2.33;;;8.00;99.90;;;;;;5095559;28;20179;-67
2022/06/22 13:10:25;;;;;;;4.87;2.80;;;8.00;99.90;;;;;;5095187;28;20707;-67
2022/06/22 13:12:59;;;;;;;3.20;2.70;;;8.10;99.90;;;;;;5095090;28;20261;-67
2022/06/22 13:15:57;;;;;;;4.50;2.93;;;8.00;99.90;;;;;;5095349;28;20170;-66
2022/06/22 13:18:55;;;;;;;4.77;2.77;;;7.90;99.90;;;;;;5095367;28;20179;-67
2022/06/22 13:21:54;;;;;;;3.23;2.17;;;7.90;99.90;;;;;;5056664;28;20230;-67
2022/06/22 13:24:49;;;;;;;3.67;2.20;;;7.80;99.90;;;;;;5085819;28;20711;-67
2022/06/22 13:27:49;;;;;;;3.70;2.10;;;7.80;99.90;;;;;;5094879;28;20240;-66
2022/06/22 13:30:28;;;;;;;4.63;2.77;;;7.80;99.90;;;;;;5074617;28;20191;-67
2022/06/22 13:33:19;;;;;;;5.17;2.50;;;7.70;99.90;;;;;;5093805;28;20183;-65
2022/06/22 13:36:02;;;;;;;6.27;2.90;;;7.70;99.90;;;;;;5095219;28;20178;-65
2022/06/22 13:38:44;;;;;;;4.90;2.83;;;7.70;99.90;;;;;;5094897;28;20167;-65
2022/06/22 13:41:18;;;;;;;6.97;3.10;;;7.60;99.90;;;;;;5095010;28;20211;-65
2022/06/22 13:44:32;;;;;;;6.60;3.57;;;7.60;99.90;;;;;;5094161;28;20185;-65
2022/06/22 13:47:25;;;;;;;6.33;3.60;;;7.50;99.90;;;;;;5086436;28;20202;-65
2022/06/22 13:50:31;;;;;;;6.97;3.47;;;7.60;99.90;;;;;;5094469;28;20185;-65
2022/06/22 13:53:32;;;;;;;7.20;3.37;;;7.70;99.90;;;;;;5093378;28;20205;-65
2022/06/22 13:56:14;;;;;;;8.23;3.77;;;7.70;99.90;;;;;;5076185;28;20697;-66
2022/06/22 13:58:50;;;;;;;8.30;3.40;;;7.70;99.90;;;;;;5094361;28;20304;-66
2022/06/22 14:01:38;;;;;;;9.03;3.53;;;7.70;99.90;;;;;;5094442;28;20570;-66
2022/06/22 14:04:30;;;;;;;5.90;3.87;;;7.60;99.90;;;;;;5093697;28;20186;-66
2022/06/22 14:07:27;;;;;;;13.50;5.20;;;7.50;99.90;;;;;;5087979;28;20183;-64
2022/06/22 14:10:02;;;;;;;7.37;3.77;;;7.40;99.90;;;;;;5093606;28;20188;-66
2022/06/22 14:12:42;;;;;;;6.30;3.83;;;7.30;99.90;;;;;;5075616;28;20215;-65
2022/06/22 14:15:20;;;;;;;6.40;3.70;;;7.30;99.90;;;;;;5076090;28;20182;-65
2022/06/22 14:18:01;;;;;;;8.10;3.80;;;7.20;99.90;;;;;;5093741;28;20189;-65
2022/06/22 14:21:01;;;;;;;6.30;3.50;;;7.10;99.90;;;;;;5093989;28;20233;-66
2022/06/22 14:23:29;;;;;;;7.20;3.67;;;7.10;99.90;;;;;;5076338;28;20175;-66